Decoded Metar for KNEW (NEW ORLEANS/LAKE in LA, USA) (IATA:NEW) | Meteo·Mobile Aviation Weather
aviador You're here:

KNEW Decoded Metar

NEW ORLEANS/LAKE in LA, USA
Report Time2019-02-16 17:53:00
UTC Time2019-02-16 18:13:55
Flight Rules mvfr MVFR
Wind070° at 03 kt
W.Decomp.*RWY 09: 2.8 kt HW 1.1 kt LCW
RWY 36: 1.1 kt HW 2.8 kt RCW
W.Rank070° ranks 11
Current wind is below 070° avg. (9.6)
Visibility6437 m
Phenomena:Mist
Clouds:Few 020 Hf
Few 025 Hf
Broken 040 Hf
Expected CloudBase > 800 ft AGL from Temp-Dew spread
Ceiling4,000 ft
Temp20°C (ISA +5)
Dew Point18°C (88% RH)
QNH1010 hPa
Density Alt971 ft
Elevation10 ft
Report Wrong Elevation
Raw Report
KNEW 161753Z 07003KT 4SM BR FEW020 FEW025 BKN040 20/18 A2984 RMK
AO2 SLP097 T02000183 10206 20167 58003=

Extra information for KNEW:More info

Metar Taf Metar & Taf Last 4 Metars F.Rules Stats Wind Profile Meteogram Temp Stats Airport Information Weather charts Add Link Nearby VenuesMetar ALERT Operation Metar Decoded Social comments

AIRNAV info for KNEW